This is the latest recevied weather packets stored in our database for station/object KB9PVH-3. If no packets are shown the sender has not sent any weather packets the latest 10 day(s).
| Time | Temp. | Humidity | Pressure | Rain* | Wind** | Luminosity | Snow |
|---|---|---|---|---|---|---|---|
| 1778103639 | 11.67° C | 43% | 1014.8 hPa | 0 mm | - | - | - |
| 1778102589 | 11.11° C | 43% | 1014.6 hPa | 0 mm | - | - | - |
| 1778100488 | 11.67° C | 43% | 1014.8 hPa | 0 mm | - | - | - |
| 1778097338 | 12.78° C | 39% | 1014.6 hPa | 0 mm | - | - | - |
| 1778093138 | 13.33° C | 39% | 1014.8 hPa | 0 mm | - | - | - |
| 1778092091 | 13.33° C | 40% | 1014.7 hPa | 0 mm | - | - | - |
| 1778091038 | 12.78° C | 37% | 1014.8 hPa | 0 mm | - | - | - |
| 1778089988 | 12.78° C | 43% | 1014.9 hPa | 0 mm | - | - | - |
| 1778088941 | 11.67° C | 45% | 1014.9 hPa | 0 mm | - | - | - |
| 1778086840 | 11.67° C | 42% | 1015.4 hPa | 0 mm | - | - | - |
| 1778084740 | 11.67° C | 42% | 1015.3 hPa | 0 mm | - | - | - |
| 1778083688 | 12.22° C | 43% | 1015.3 hPa | 0 mm | - | - | - |
| 1778081590 | 11.67° C | 49% | 1015.4 hPa | 0 mm | - | - | - |
| 1778080540 | 11.67° C | 44% | 1015.3 hPa | 0 mm | - | - | - |
| 1778078440 | 10.56° C | 47% | 1015.4 hPa | 0 mm | - | - | - |
| 1778077390 | 10.56° C | 55% | 1015 hPa | 0 mm | - | - | - |
| 1778076340 | 10° C | 52% | 1014.9 hPa | 0 mm | - | - | - |
| 1778075286 | 8.89° C | 57% | 1014.8 hPa | 0 mm | - | - | - |
| 1778074240 | 8.33° C | 59% | 1015 hPa | 0 mm | - | - | - |
| 1778071087 | 5.56° C | 69% | 1014.2 hPa | 0 mm | - | - | - |
| 1778070038 | 5° C | 71% | 1013.9 hPa | 0 mm | - | - | - |
| 1778068986 | 3.89° C | 71% | 1013.9 hPa | 0 mm | - | - | - |
| 1778067936 | 3.33° C | 73% | 1013.9 hPa | 0 mm | - | - | - |
| 1778066886 | 2.78° C | 73% | 1014 hPa | 0 mm | - | - | - |
| 1778065836 | 2.78° C | 73% | 1013.8 hPa | 0 mm | - | - | - |
* Rain latest hour (hover to see other rain measurements)
** Current wind speed in m/s (hover to see current wind gust speed)